sensor_id;sensor_type;location;lat;lon;timestamp;P1;durP1;ratioP1;P2;durP2;ratioP2
12556;SDS011;6344;49.932;8.308;2023-04-15T00:00:02;5.93;;;5.30;;
12556;SDS011;6344;49.932;8.308;2023-04-15T00:02:30;8.90;;;5.23;;
12556;SDS011;6344;49.932;8.308;2023-04-15T00:04:56;7.37;;;6.70;;
12556;SDS011;6344;49.932;8.308;2023-04-15T00:07:24;9.33;;;6.03;;
12556;SDS011;6344;49.932;8.308;2023-04-15T00:09:51;10.00;;;6.50;;
12556;SDS011;6344;49.932;8.308;2023-04-15T00:12:20;9.90;;;6.47;;
12556;SDS011;6344;49.932;8.308;2023-04-15T00:14:46;9.80;;;5.10;;
12556;SDS011;6344;49.932;8.308;2023-04-15T00:17:14;10.07;;;6.40;;
12556;SDS011;6344;49.932;8.308;2023-04-15T00:19:41;8.67;;;7.70;;
12556;SDS011;6344;49.932;8.308;2023-04-15T00:22:08;8.83;;;7.03;;
12556;SDS011;6344;49.932;8.308;2023-04-15T00:24:36;10.00;;;5.90;;
12556;SDS011;6344;49.932;8.308;2023-04-15T00:27:03;9.87;;;7.70;;
12556;SDS011;6344;49.932;8.308;2023-04-15T00:29:30;9.20;;;7.17;;
12556;SDS011;6344;49.932;8.308;2023-04-15T00:31:57;6.63;;;6.03;;
12556;SDS011;6344;49.932;8.308;2023-04-15T00:34:24;10.60;;;6.60;;
12556;SDS011;6344;49.932;8.308;2023-04-15T00:36:51;7.50;;;6.10;;
12556;SDS011;6344;49.932;8.308;2023-04-15T00:39:18;7.73;;;6.70;;
12556;SDS011;6344;49.932;8.308;2023-04-15T00:41:47;9.37;;;5.97;;
12556;SDS011;6344;49.932;8.308;2023-04-15T00:44:14;7.10;;;5.90;;
12556;SDS011;6344;49.932;8.308;2023-04-15T00:46:42;9.57;;;6.43;;
12556;SDS011;6344;49.932;8.308;2023-04-15T00:49:11;7.63;;;6.40;;
12556;SDS011;6344;49.932;8.308;2023-04-15T00:51:38;9.07;;;6.20;;
12556;SDS011;6344;49.932;8.308;2023-04-15T00:54:05;9.43;;;6.63;;
12556;SDS011;6344;49.932;8.308;2023-04-15T00:56:33;8.70;;;6.00;;
12556;SDS011;6344;49.932;8.308;2023-04-15T00:59:03;7.00;;;5.93;;
12556;SDS011;6344;49.932;8.308;2023-04-15T01:01:32;11.20;;;5.50;;
12556;SDS011;6344;49.932;8.308;2023-04-15T01:03:59;11.20;;;5.70;;
12556;SDS011;6344;49.932;8.308;2023-04-15T01:06:27;7.40;;;6.70;;
12556;SDS011;6344;49.932;8.308;2023-04-15T01:08:54;9.27;;;6.27;;
12556;SDS011;6344;49.932;8.308;2023-04-15T01:11:22;6.40;;;5.80;;
12556;SDS011;6344;49.932;8.308;2023-04-15T01:13:49;7.60;;;5.90;;
12556;SDS011;6344;49.932;8.308;2023-04-15T01:16:18;6.50;;;5.57;;
12556;SDS011;6344;49.932;8.308;2023-04-15T01:18:45;12.00;;;5.87;;
12556;SDS011;6344;49.932;8.308;2023-04-15T01:21:12;7.03;;;5.40;;
12556;SDS011;6344;49.932;8.308;2023-04-15T01:23:39;9.87;;;6.60;;
12556;SDS011;6344;49.932;8.308;2023-04-15T01:26:07;9.40;;;6.43;;
12556;SDS011;6344;49.932;8.308;2023-04-15T01:28:34;8.80;;;6.27;;
12556;SDS011;6344;49.932;8.308;2023-04-15T01:31:05;11.60;;;7.40;;
12556;SDS011;6344;49.932;8.308;2023-04-15T01:33:32;15.50;;;7.47;;
12556;SDS011;6344;49.932;8.308;2023-04-15T01:35:59;7.60;;;6.27;;
12556;SDS011;6344;49.932;8.308;2023-04-15T01:38:26;11.83;;;6.83;;
12556;SDS011;6344;49.932;8.308;2023-04-15T01:40:53;13.33;;;8.30;;
12556;SDS011;6344;49.932;8.308;2023-04-15T01:43:21;8.67;;;6.70;;
12556;SDS011;6344;49.932;8.308;2023-04-15T01:45:48;8.70;;;7.23;;
12556;SDS011;6344;49.932;8.308;2023-04-15T01:48:15;10.13;;;7.23;;
12556;SDS011;6344;49.932;8.308;2023-04-15T01:50:41;13.37;;;7.73;;
12556;SDS011;6344;49.932;8.308;2023-04-15T01:53:08;11.03;;;7.50;;
12556;SDS011;6344;49.932;8.308;2023-04-15T01:55:35;7.30;;;6.70;;
12556;SDS011;6344;49.932;8.308;2023-04-15T01:58:02;10.00;;;5.70;;
12556;SDS011;6344;49.932;8.308;2023-04-15T02:00:30;9.47;;;5.90;;
12556;SDS011;6344;49.932;8.308;2023-04-15T02:02:57;6.43;;;5.83;;
12556;SDS011;6344;49.932;8.308;2023-04-15T02:05:24;10.10;;;6.30;;
12556;SDS011;6344;49.932;8.308;2023-04-15T02:07:51;9.83;;;6.30;;
12556;SDS011;6344;49.932;8.308;2023-04-15T02:10:18;6.70;;;5.30;;
12556;SDS011;6344;49.932;8.308;2023-04-15T02:12:45;9.03;;;7.23;;
12556;SDS011;6344;49.932;8.308;2023-04-15T02:15:12;10.70;;;6.83;;
12556;SDS011;6344;49.932;8.308;2023-04-15T02:17:40;9.20;;;6.63;;
12556;SDS011;6344;49.932;8.308;2023-04-15T02:20:10;6.60;;;5.90;;
12556;SDS011;6344;49.932;8.308;2023-04-15T02:22:36;6.87;;;5.80;;
12556;SDS011;6344;49.932;8.308;2023-04-15T02:25:03;7.97;;;6.67;;
12556;SDS011;6344;49.932;8.308;2023-04-15T02:27:31;9.23;;;6.27;;
12556;SDS011;6344;49.932;8.308;2023-04-15T02:29:57;7.73;;;6.10;;
12556;SDS011;6344;49.932;8.308;2023-04-15T02:32:24;5.73;;;5.23;;
12556;SDS011;6344;49.932;8.308;2023-04-15T02:34:52;7.03;;;5.83;;
12556;SDS011;6344;49.932;8.308;2023-04-15T02:37:19;7.57;;;5.97;;
12556;SDS011;6344;49.932;8.308;2023-04-15T02:39:45;8.27;;;6.03;;
12556;SDS011;6344;49.932;8.308;2023-04-15T02:42:12;9.40;;;6.70;;
12556;SDS011;6344;49.932;8.308;2023-04-15T02:44:39;8.23;;;6.50;;
12556;SDS011;6344;49.932;8.308;2023-04-15T02:47:05;11.60;;;7.30;;
12556;SDS011;6344;49.932;8.308;2023-04-15T02:49:32;10.00;;;6.87;;
12556;SDS011;6344;49.932;8.308;2023-04-15T02:52:00;13.00;;;7.43;;
12556;SDS011;6344;49.932;8.308;2023-04-15T02:54:27;11.23;;;7.23;;
12556;SDS011;6344;49.932;8.308;2023-04-15T02:56:53;11.10;;;7.80;;
12556;SDS011;6344;49.932;8.308;2023-04-15T02:59:20;10.80;;;6.97;;
12556;SDS011;6344;49.932;8.308;2023-04-15T03:01:47;10.97;;;6.60;;
12556;SDS011;6344;49.932;8.308;2023-04-15T03:04:14;10.70;;;7.67;;
12556;SDS011;6344;49.932;8.308;2023-04-15T03:06:40;9.83;;;7.50;;
12556;SDS011;6344;49.932;8.308;2023-04-15T03:09:08;9.47;;;7.23;;
12556;SDS011;6344;49.932;8.308;2023-04-15T03:11:35;9.80;;;7.90;;
12556;SDS011;6344;49.932;8.308;2023-04-15T03:14:04;7.30;;;6.60;;
12556;SDS011;6344;49.932;8.308;2023-04-15T03:16:31;7.10;;;6.50;;
12556;SDS011;6344;49.932;8.308;2023-04-15T03:18:57;10.60;;;7.60;;
12556;SDS011;6344;49.932;8.308;2023-04-15T03:21:24;7.17;;;6.47;;
12556;SDS011;6344;49.932;8.308;2023-04-15T03:23:51;8.57;;;6.47;;
12556;SDS011;6344;49.932;8.308;2023-04-15T03:26:26;8.03;;;6.30;;
12556;SDS011;6344;49.932;8.308;2023-04-15T03:28:53;8.50;;;6.73;;
12556;SDS011;6344;49.932;8.308;2023-04-15T03:31:20;7.37;;;6.43;;
12556;SDS011;6344;49.932;8.308;2023-04-15T03:33:46;8.37;;;7.13;;
12556;SDS011;6344;49.932;8.308;2023-04-15T03:36:13;7.67;;;6.97;;
12556;SDS011;6344;49.932;8.308;2023-04-15T03:38:40;8.33;;;7.03;;
12556;SDS011;6344;49.932;8.308;2023-04-15T03:41:07;8.70;;;7.00;;
12556;SDS011;6344;49.932;8.308;2023-04-15T03:43:35;9.03;;;8.13;;
12556;SDS011;6344;49.932;8.308;2023-04-15T03:46:02;10.23;;;7.40;;
12556;SDS011;6344;49.932;8.308;2023-04-15T03:48:29;10.10;;;7.30;;
12556;SDS011;6344;49.932;8.308;2023-04-15T03:50:56;9.80;;;7.80;;
12556;SDS011;6344;49.932;8.308;2023-04-15T03:53:23;8.10;;;7.13;;
12556;SDS011;6344;49.932;8.308;2023-04-15T03:55:49;8.50;;;7.23;;
12556;SDS011;6344;49.932;8.308;2023-04-15T03:58:16;10.30;;;8.60;;
12556;SDS011;6344;49.932;8.308;2023-04-15T04:00:44;9.13;;;8.43;;
12556;SDS011;6344;49.932;8.308;2023-04-15T04:03:11;9.60;;;7.20;;
12556;SDS011;6344;49.932;8.308;2023-04-15T04:05:37;10.20;;;8.67;;
12556;SDS011;6344;49.932;8.308;2023-04-15T04:08:05;9.50;;;8.50;;
12556;SDS011;6344;49.932;8.308;2023-04-15T04:10:32;9.33;;;7.90;;
12556;SDS011;6344;49.932;8.308;2023-04-15T04:12:58;10.27;;;8.10;;
12556;SDS011;6344;49.932;8.308;2023-04-15T04:15:25;10.83;;;8.57;;
12556;SDS011;6344;49.932;8.308;2023-04-15T04:17:53;15.30;;;9.07;;
12556;SDS011;6344;49.932;8.308;2023-04-15T04:20:20;12.80;;;8.07;;
12556;SDS011;6344;49.932;8.308;2023-04-15T04:22:46;7.67;;;6.87;;
12556;SDS011;6344;49.932;8.308;2023-04-15T04:25:13;10.30;;;7.77;;
12556;SDS011;6344;49.932;8.308;2023-04-15T04:27:40;8.67;;;7.20;;
12556;SDS011;6344;49.932;8.308;2023-04-15T04:30:07;11.83;;;7.67;;
12556;SDS011;6344;49.932;8.308;2023-04-15T04:32:34;10.17;;;8.80;;
12556;SDS011;6344;49.932;8.308;2023-04-15T04:35:02;8.60;;;7.67;;
12556;SDS011;6344;49.932;8.308;2023-04-15T04:37:29;12.37;;;8.40;;
12556;SDS011;6344;49.932;8.308;2023-04-15T04:39:55;10.40;;;8.37;;
12556;SDS011;6344;49.932;8.308;2023-04-15T04:42:22;12.13;;;9.23;;
12556;SDS011;6344;49.932;8.308;2023-04-15T04:44:49;12.27;;;8.60;;
12556;SDS011;6344;49.932;8.308;2023-04-15T04:47:16;19.87;;;8.67;;
12556;SDS011;6344;49.932;8.308;2023-04-15T04:49:42;10.90;;;8.40;;
12556;SDS011;6344;49.932;8.308;2023-04-15T04:52:10;10.90;;;8.67;;
12556;SDS011;6344;49.932;8.308;2023-04-15T04:54:37;11.87;;;8.93;;
12556;SDS011;6344;49.932;8.308;2023-04-15T04:57:04;9.00;;;8.13;;
12556;SDS011;6344;49.932;8.308;2023-04-15T04:59:31;9.90;;;8.97;;
12556;SDS011;6344;49.932;8.308;2023-04-15T05:01:58;8.33;;;7.50;;
12556;SDS011;6344;49.932;8.308;2023-04-15T05:04:25;9.33;;;7.73;;
12556;SDS011;6344;49.932;8.308;2023-04-15T05:06:52;11.50;;;7.93;;
12556;SDS011;6344;49.932;8.308;2023-04-15T05:09:20;9.00;;;7.87;;
12556;SDS011;6344;49.932;8.308;2023-04-15T05:11:46;8.87;;;8.00;;
12556;SDS011;6344;49.932;8.308;2023-04-15T05:14:13;8.17;;;7.37;;
12556;SDS011;6344;49.932;8.308;2023-04-15T05:16:40;10.60;;;8.00;;
12556;SDS011;6344;49.932;8.308;2023-04-15T05:19:07;8.03;;;7.13;;
12556;SDS011;6344;49.932;8.308;2023-04-15T05:21:33;10.43;;;8.10;;
12556;SDS011;6344;49.932;8.308;2023-04-15T05:24:00;10.20;;;7.50;;
12556;SDS011;6344;49.932;8.308;2023-04-15T05:26:28;10.93;;;8.43;;
12556;SDS011;6344;49.932;8.308;2023-04-15T05:28:55;12.73;;;8.60;;
12556;SDS011;6344;49.932;8.308;2023-04-15T05:31:22;12.73;;;8.80;;
12556;SDS011;6344;49.932;8.308;2023-04-15T05:33:48;10.37;;;8.17;;
12556;SDS011;6344;49.932;8.308;2023-04-15T05:36:15;11.43;;;7.23;;
12556;SDS011;6344;49.932;8.308;2023-04-15T05:38:42;10.67;;;8.97;;
12556;SDS011;6344;49.932;8.308;2023-04-15T05:41:08;12.23;;;9.30;;
12556;SDS011;6344;49.932;8.308;2023-04-15T05:43:36;10.47;;;8.73;;
12556;SDS011;6344;49.932;8.308;2023-04-15T05:46:03;14.33;;;9.03;;
12556;SDS011;6344;49.932;8.308;2023-04-15T05:48:30;14.17;;;9.20;;
12556;SDS011;6344;49.932;8.308;2023-04-15T05:50:56;11.07;;;9.43;;
12556;SDS011;6344;49.932;8.308;2023-04-15T05:53:23;12.67;;;9.03;;
12556;SDS011;6344;49.932;8.308;2023-04-15T05:55:50;11.70;;;9.20;;
12556;SDS011;6344;49.932;8.308;2023-04-15T05:58:16;11.97;;;10.27;;
12556;SDS011;6344;49.932;8.308;2023-04-15T06:00:44;14.20;;;11.33;;
12556;SDS011;6344;49.932;8.308;2023-04-15T06:03:11;12.30;;;10.77;;
12556;SDS011;6344;49.932;8.308;2023-04-15T06:05:38;14.30;;;11.20;;
12556;SDS011;6344;49.932;8.308;2023-04-15T06:08:05;16.77;;;9.73;;
12556;SDS011;6344;49.932;8.308;2023-04-15T06:10:32;10.20;;;9.30;;
12556;SDS011;6344;49.932;8.308;2023-04-15T06:13:00;16.07;;;10.20;;
12556;SDS011;6344;49.932;8.308;2023-04-15T06:15:27;18.57;;;9.97;;
12556;SDS011;6344;49.932;8.308;2023-04-15T06:17:55;11.23;;;9.43;;
12556;SDS011;6344;49.932;8.308;2023-04-15T06:20:22;17.70;;;10.70;;
12556;SDS011;6344;49.932;8.308;2023-04-15T06:22:49;10.90;;;9.90;;
12556;SDS011;6344;49.932;8.308;2023-04-15T06:25:16;11.10;;;9.90;;
12556;SDS011;6344;49.932;8.308;2023-04-15T06:27:43;14.13;;;10.80;;
12556;SDS011;6344;49.932;8.308;2023-04-15T06:30:10;13.00;;;9.83;;
12556;SDS011;6344;49.932;8.308;2023-04-15T06:32:37;11.70;;;10.17;;
12556;SDS011;6344;49.932;8.308;2023-04-15T06:35:05;14.27;;;10.03;;
12556;SDS011;6344;49.932;8.308;2023-04-15T06:37:32;11.27;;;10.07;;
12556;SDS011;6344;49.932;8.308;2023-04-15T06:39:59;11.70;;;10.30;;
12556;SDS011;6344;49.932;8.308;2023-04-15T06:42:26;14.53;;;9.77;;
12556;SDS011;6344;49.932;8.308;2023-04-15T06:44:52;7.90;;;7.07;;
12556;SDS011;6344;49.932;8.308;2023-04-15T06:47:19;11.00;;;7.93;;
12556;SDS011;6344;49.932;8.308;2023-04-15T06:49:46;8.57;;;7.77;;
12556;SDS011;6344;49.932;8.308;2023-04-15T06:52:14;7.30;;;6.50;;
12556;SDS011;6344;49.932;8.308;2023-04-15T06:54:41;7.73;;;7.03;;
12556;SDS011;6344;49.932;8.308;2023-04-15T06:57:07;10.70;;;7.60;;
12556;SDS011;6344;49.932;8.308;2023-04-15T06:59:34;8.13;;;7.40;;
12556;SDS011;6344;49.932;8.308;2023-04-15T07:02:01;10.43;;;7.57;;
12556;SDS011;6344;49.932;8.308;2023-04-15T07:04:27;7.63;;;6.50;;
12556;SDS011;6344;49.932;8.308;2023-04-15T07:06:54;10.50;;;8.10;;
12556;SDS011;6344;49.932;8.308;2023-04-15T07:09:22;7.73;;;6.90;;
12556;SDS011;6344;49.932;8.308;2023-04-15T07:11:49;10.37;;;7.60;;
12556;SDS011;6344;49.932;8.308;2023-04-15T07:14:16;7.23;;;6.57;;
12556;SDS011;6344;49.932;8.308;2023-04-15T07:16:43;9.10;;;7.07;;
12556;SDS011;6344;49.932;8.308;2023-04-15T07:19:10;7.23;;;6.40;;
12556;SDS011;6344;49.932;8.308;2023-04-15T07:21:36;7.07;;;6.37;;
12556;SDS011;6344;49.932;8.308;2023-04-15T07:24:03;8.60;;;6.60;;
12556;SDS011;6344;49.932;8.308;2023-04-15T07:26:32;7.30;;;6.60;;
12556;SDS011;6344;49.932;8.308;2023-04-15T07:28:58;7.43;;;6.80;;
12556;SDS011;6344;49.932;8.308;2023-04-15T07:31:25;7.03;;;6.43;;
12556;SDS011;6344;49.932;8.308;2023-04-15T07:33:51;8.27;;;6.00;;
12556;SDS011;6344;49.932;8.308;2023-04-15T07:36:18;8.03;;;6.57;;
12556;SDS011;6344;49.932;8.308;2023-04-15T07:38:45;7.40;;;6.70;;
12556;SDS011;6344;49.932;8.308;2023-04-15T07:41:11;8.17;;;7.27;;
12556;SDS011;6344;49.932;8.308;2023-04-15T07:43:39;7.63;;;6.90;;
12556;SDS011;6344;49.932;8.308;2023-04-15T07:46:07;8.30;;;7.57;;
12556;SDS011;6344;49.932;8.308;2023-04-15T07:48:33;7.50;;;6.83;;
12556;SDS011;6344;49.932;8.308;2023-04-15T07:51:00;6.10;;;5.60;;
12556;SDS011;6344;49.932;8.308;2023-04-15T07:53:27;6.23;;;5.53;;
12556;SDS011;6344;49.932;8.308;2023-04-15T07:55:54;8.03;;;7.23;;
12556;SDS011;6344;49.932;8.308;2023-04-15T07:58:21;6.90;;;6.40;;
12556;SDS011;6344;49.932;8.308;2023-04-15T08:00:49;7.20;;;6.60;;
12556;SDS011;6344;49.932;8.308;2023-04-15T08:03:16;7.10;;;6.40;;
12556;SDS011;6344;49.932;8.308;2023-04-15T08:05:43;7.00;;;6.40;;
12556;SDS011;6344;49.932;8.308;2023-04-15T08:08:11;6.80;;;6.20;;
12556;SDS011;6344;49.932;8.308;2023-04-15T08:10:38;7.37;;;6.63;;
12556;SDS011;6344;49.932;8.308;2023-04-15T08:13:04;8.40;;;7.40;;
12556;SDS011;6344;49.932;8.308;2023-04-15T08:15:31;7.13;;;6.50;;
12556;SDS011;6344;49.932;8.308;2023-04-15T08:17:59;9.10;;;6.20;;
12556;SDS011;6344;49.932;8.308;2023-04-15T08:20:26;8.60;;;5.70;;
12556;SDS011;6344;49.932;8.308;2023-04-15T08:22:53;7.43;;;5.57;;
12556;SDS011;6344;49.932;8.308;2023-04-15T08:25:19;7.47;;;6.87;;
12556;SDS011;6344;49.932;8.308;2023-04-15T08:27:46;7.00;;;6.30;;
12556;SDS011;6344;49.932;8.308;2023-04-15T08:30:13;6.93;;;6.33;;
12556;SDS011;6344;49.932;8.308;2023-04-15T08:32:40;6.93;;;5.90;;
12556;SDS011;6344;49.932;8.308;2023-04-15T08:35:12;8.50;;;7.47;;
12556;SDS011;6344;49.932;8.308;2023-04-15T08:37:39;6.90;;;6.30;;
12556;SDS011;6344;49.932;8.308;2023-04-15T08:40:07;7.30;;;6.80;;
12556;SDS011;6344;49.932;8.308;2023-04-15T08:42:36;6.60;;;5.57;;
12556;SDS011;6344;49.932;8.308;2023-04-15T08:45:06;7.10;;;6.03;;
12556;SDS011;6344;49.932;8.308;2023-04-15T08:47:35;6.60;;;6.03;;
12556;SDS011;6344;49.932;8.308;2023-04-15T08:50:03;7.40;;;6.70;;
12556;SDS011;6344;49.932;8.308;2023-04-15T08:52:34;6.40;;;6.00;;
12556;SDS011;6344;49.932;8.308;2023-04-15T08:55:01;6.40;;;5.90;;
12556;SDS011;6344;49.932;8.308;2023-04-15T08:57:28;6.00;;;5.50;;
12556;SDS011;6344;49.932;8.308;2023-04-15T08:59:56;7.37;;;6.60;;
12556;SDS011;6344;49.932;8.308;2023-04-15T09:02:23;7.10;;;6.40;;
12556;SDS011;6344;49.932;8.308;2023-04-15T09:04:51;6.03;;;5.60;;
12556;SDS011;6344;49.932;8.308;2023-04-15T09:07:18;6.53;;;6.03;;
12556;SDS011;6344;49.932;8.308;2023-04-15T09:09:46;6.73;;;6.20;;
12556;SDS011;6344;49.932;8.308;2023-04-15T09:12:14;7.57;;;6.30;;
12556;SDS011;6344;49.932;8.308;2023-04-15T09:14:42;6.70;;;6.20;;
12556;SDS011;6344;49.932;8.308;2023-04-15T09:17:10;7.87;;;7.07;;
12556;SDS011;6344;49.932;8.308;2023-04-15T09:19:37;6.90;;;6.30;;
12556;SDS011;6344;49.932;8.308;2023-04-15T09:22:04;6.93;;;6.43;;
12556;SDS011;6344;49.932;8.308;2023-04-15T09:24:35;7.60;;;6.90;;
12556;SDS011;6344;49.932;8.308;2023-04-15T09:27:04;7.20;;;6.47;;
12556;SDS011;6344;49.932;8.308;2023-04-15T09:29:31;7.97;;;6.40;;
12556;SDS011;6344;49.932;8.308;2023-04-15T09:32:08;7.30;;;6.70;;
12556;SDS011;6344;49.932;8.308;2023-04-15T09:34:36;6.80;;;6.10;;
12556;SDS011;6344;49.932;8.308;2023-04-15T09:37:02;6.90;;;6.30;;
12556;SDS011;6344;49.932;8.308;2023-04-15T09:39:43;6.97;;;5.10;;
12556;SDS011;6344;49.932;8.308;2023-04-15T09:42:13;6.67;;;6.07;;
12556;SDS011;6344;49.932;8.308;2023-04-15T09:44:41;6.57;;;5.97;;
12556;SDS011;6344;49.932;8.308;2023-04-15T09:47:08;5.50;;;5.10;;
12556;SDS011;6344;49.932;8.308;2023-04-15T09:49:34;5.53;;;5.13;;
12556;SDS011;6344;49.932;8.308;2023-04-15T09:52:01;5.80;;;5.30;;
12556;SDS011;6344;49.932;8.308;2023-04-15T09:54:35;6.30;;;5.30;;
12556;SDS011;6344;49.932;8.308;2023-04-15T09:57:06;6.03;;;5.53;;
12556;SDS011;6344;49.932;8.308;2023-04-15T09:59:35;6.17;;;5.77;;
12556;SDS011;6344;49.932;8.308;2023-04-15T10:02:03;6.10;;;5.60;;
12556;SDS011;6344;49.932;8.308;2023-04-15T10:04:31;5.70;;;5.30;;
12556;SDS011;6344;49.932;8.308;2023-04-15T10:07:02;5.33;;;4.93;;
12556;SDS011;6344;49.932;8.308;2023-04-15T10:09:29;5.97;;;5.53;;
12556;SDS011;6344;49.932;8.308;2023-04-15T10:11:57;6.23;;;5.40;;
12556;SDS011;6344;49.932;8.308;2023-04-15T10:14:25;6.87;;;4.67;;
12556;SDS011;6344;49.932;8.308;2023-04-15T10:16:54;3.20;;;3.00;;
12556;SDS011;6344;49.932;8.308;2023-04-15T10:19:23;4.13;;;3.13;;
12556;SDS011;6344;49.932;8.308;2023-04-15T10:21:52;2.63;;;1.90;;
12556;SDS011;6344;49.932;8.308;2023-04-15T10:24:20;2.53;;;2.20;;
12556;SDS011;6344;49.932;8.308;2023-04-15T10:26:47;2.70;;;1.93;;
12556;SDS011;6344;49.932;8.308;2023-04-15T10:29:15;2.70;;;1.80;;
12556;SDS011;6344;49.932;8.308;2023-04-15T10:31:42;2.17;;;1.97;;
12556;SDS011;6344;49.932;8.308;2023-04-15T10:34:11;1.70;;;1.60;;
12556;SDS011;6344;49.932;8.308;2023-04-15T10:36:39;3.23;;;2.20;;
12556;SDS011;6344;49.932;8.308;2023-04-15T10:39:33;2.67;;;2.47;;
12556;SDS011;6344;49.932;8.308;2023-04-15T10:42:05;2.60;;;2.40;;
12556;SDS011;6344;49.932;8.308;2023-04-15T10:44:32;4.13;;;2.73;;
12556;SDS011;6344;49.932;8.308;2023-04-15T10:47:00;2.37;;;1.93;;
12556;SDS011;6344;49.932;8.308;2023-04-15T10:49:36;3.10;;;2.70;;
12556;SDS011;6344;49.932;8.308;2023-04-15T10:52:09;6.03;;;4.80;;
12556;SDS011;6344;49.932;8.308;2023-04-15T10:54:35;2.27;;;2.10;;
12556;SDS011;6344;49.932;8.308;2023-04-15T10:57:06;2.83;;;1.80;;
12556;SDS011;6344;49.932;8.308;2023-04-15T10:59:36;2.53;;;2.33;;
12556;SDS011;6344;49.932;8.308;2023-04-15T11:02:04;2.20;;;2.00;;
12556;SDS011;6344;49.932;8.308;2023-04-15T11:04:52;2.80;;;2.00;;
12556;SDS011;6344;49.932;8.308;2023-04-15T11:07:35;2.23;;;1.50;;
12556;SDS011;6344;49.932;8.308;2023-04-15T11:10:03;2.33;;;1.93;;
12556;SDS011;6344;49.932;8.308;2023-04-15T11:12:59;4.03;;;2.50;;
12556;SDS011;6344;49.932;8.308;2023-04-15T11:15:28;3.23;;;2.13;;
12556;SDS011;6344;49.932;8.308;2023-04-15T11:17:56;2.23;;;1.90;;
12556;SDS011;6344;49.932;8.308;2023-04-15T11:20:25;2.30;;;2.10;;
12556;SDS011;6344;49.932;8.308;2023-04-15T11:22:53;2.57;;;2.30;;
12556;SDS011;6344;49.932;8.308;2023-04-15T11:25:23;2.50;;;2.30;;
12556;SDS011;6344;49.932;8.308;2023-04-15T11:27:50;2.43;;;2.23;;
12556;SDS011;6344;49.932;8.308;2023-04-15T11:30:19;2.73;;;2.53;;
12556;SDS011;6344;49.932;8.308;2023-04-15T11:32:47;8.10;;;2.20;;
12556;SDS011;6344;49.932;8.308;2023-04-15T11:35:14;3.30;;;2.67;;
12556;SDS011;6344;49.932;8.308;2023-04-15T11:37:43;2.67;;;2.47;;
12556;SDS011;6344;49.932;8.308;2023-04-15T11:40:10;8.10;;;2.70;;
12556;SDS011;6344;49.932;8.308;2023-04-15T11:42:37;2.50;;;1.90;;
12556;SDS011;6344;49.932;8.308;2023-04-15T11:45:07;1.87;;;1.77;;
12556;SDS011;6344;49.932;8.308;2023-04-15T11:47:34;1.67;;;1.57;;
12556;SDS011;6344;49.932;8.308;2023-04-15T11:52:55;1.50;;;1.40;;
12556;SDS011;6344;49.932;8.308;2023-04-15T11:55:23;1.97;;;1.80;;
12556;SDS011;6344;49.932;8.308;2023-04-15T11:58:04;1.90;;;1.60;;
12556;SDS011;6344;49.932;8.308;2023-04-15T12:00:32;1.60;;;1.50;;
12556;SDS011;6344;49.932;8.308;2023-04-15T12:03:10;1.70;;;1.60;;
12556;SDS011;6344;49.932;8.308;2023-04-15T12:08:49;1.30;;;1.20;;
12556;SDS011;6344;49.932;8.308;2023-04-15T12:11:17;1.30;;;1.17;;
12556;SDS011;6344;49.932;8.308;2023-04-15T12:13:44;1.40;;;1.13;;
12556;SDS011;6344;49.932;8.308;2023-04-15T12:16:12;1.50;;;1.40;;
12556;SDS011;6344;49.932;8.308;2023-04-15T12:18:41;3.00;;;1.60;;
12556;SDS011;6344;49.932;8.308;2023-04-15T12:21:11;1.90;;;1.80;;
12556;SDS011;6344;49.932;8.308;2023-04-15T12:23:38;1.70;;;1.60;;
12556;SDS011;6344;49.932;8.308;2023-04-15T12:26:06;1.80;;;1.70;;
12556;SDS011;6344;49.932;8.308;2023-04-15T12:28:33;1.60;;;1.50;;
12556;SDS011;6344;49.932;8.308;2023-04-15T12:31:05;2.07;;;1.43;;
12556;SDS011;6344;49.932;8.308;2023-04-15T12:33:32;2.47;;;1.53;;
12556;SDS011;6344;49.932;8.308;2023-04-15T12:35:59;2.20;;;2.00;;
12556;SDS011;6344;49.932;8.308;2023-04-15T12:38:26;2.10;;;1.83;;
12556;SDS011;6344;49.932;8.308;2023-04-15T12:40:53;1.70;;;1.40;;
12556;SDS011;6344;49.932;8.308;2023-04-15T12:43:21;1.70;;;1.60;;
12556;SDS011;6344;49.932;8.308;2023-04-15T12:45:47;1.30;;;1.20;;
12556;SDS011;6344;49.932;8.308;2023-04-15T12:48:14;1.60;;;1.50;;
12556;SDS011;6344;49.932;8.308;2023-04-15T12:50:41;1.70;;;1.60;;
12556;SDS011;6344;49.932;8.308;2023-04-15T12:53:07;1.90;;;1.80;;
12556;SDS011;6344;49.932;8.308;2023-04-15T12:55:34;3.27;;;1.70;;
12556;SDS011;6344;49.932;8.308;2023-04-15T12:58:01;2.10;;;1.70;;
12556;SDS011;6344;49.932;8.308;2023-04-15T13:00:28;1.70;;;1.60;;
12556;SDS011;6344;49.932;8.308;2023-04-15T13:02:55;1.50;;;1.40;;
12556;SDS011;6344;49.932;8.308;2023-04-15T13:05:22;1.97;;;1.80;;
12556;SDS011;6344;49.932;8.308;2023-04-15T13:07:49;2.23;;;1.90;;
12556;SDS011;6344;49.932;8.308;2023-04-15T13:10:15;1.83;;;1.73;;
12556;SDS011;6344;49.932;8.308;2023-04-15T13:12:42;3.60;;;2.50;;
12556;SDS011;6344;49.932;8.308;2023-04-15T13:15:11;1.87;;;1.77;;
12556;SDS011;6344;49.932;8.308;2023-04-15T13:17:39;2.53;;;2.20;;
12556;SDS011;6344;49.932;8.308;2023-04-15T13:20:05;1.50;;;1.40;;
12556;SDS011;6344;49.932;8.308;2023-04-15T13:22:32;1.90;;;1.80;;
12556;SDS011;6344;49.932;8.308;2023-04-15T13:24:59;1.50;;;1.40;;
12556;SDS011;6344;49.932;8.308;2023-04-15T13:27:26;2.00;;;1.80;;
12556;SDS011;6344;49.932;8.308;2023-04-15T13:29:52;2.33;;;2.10;;
12556;SDS011;6344;49.932;8.308;2023-04-15T13:32:19;2.40;;;1.97;;
12556;SDS011;6344;49.932;8.308;2023-04-15T13:34:47;2.00;;;1.70;;
12556;SDS011;6344;49.932;8.308;2023-04-15T13:37:14;2.23;;;2.03;;
12556;SDS011;6344;49.932;8.308;2023-04-15T13:39:41;2.23;;;2.03;;
12556;SDS011;6344;49.932;8.308;2023-04-15T13:42:07;3.97;;;2.50;;
12556;SDS011;6344;49.932;8.308;2023-04-15T13:44:34;1.60;;;1.50;;
12556;SDS011;6344;49.932;8.308;2023-04-15T13:47:01;2.40;;;2.20;;
12556;SDS011;6344;49.932;8.308;2023-04-15T13:49:28;2.80;;;1.90;;
12556;SDS011;6344;49.932;8.308;2023-04-15T13:51:56;2.17;;;2.07;;
12556;SDS011;6344;49.932;8.308;2023-04-15T13:54:22;2.10;;;1.90;;
12556;SDS011;6344;49.932;8.308;2023-04-15T13:56:49;2.77;;;2.00;;
12556;SDS011;6344;49.932;8.308;2023-04-15T13:59:16;2.77;;;2.57;;
12556;SDS011;6344;49.932;8.308;2023-04-15T14:01:42;2.20;;;2.10;;
12556;SDS011;6344;49.932;8.308;2023-04-15T14:04:09;2.97;;;2.77;;
12556;SDS011;6344;49.932;8.308;2023-04-15T14:06:35;2.40;;;2.30;;
12556;SDS011;6344;49.932;8.308;2023-04-15T14:09:04;3.00;;;2.80;;
12556;SDS011;6344;49.932;8.308;2023-04-15T14:11:30;2.10;;;2.00;;
12556;SDS011;6344;49.932;8.308;2023-04-15T14:13:59;1.77;;;1.67;;
12556;SDS011;6344;49.932;8.308;2023-04-15T14:16:25;2.07;;;1.90;;
12556;SDS011;6344;49.932;8.308;2023-04-15T14:18:52;2.73;;;2.50;;
12556;SDS011;6344;49.932;8.308;2023-04-15T14:21:19;1.83;;;1.57;;
12556;SDS011;6344;49.932;8.308;2023-04-15T14:23:45;1.80;;;1.70;;
12556;SDS011;6344;49.932;8.308;2023-04-15T14:26:14;1.80;;;1.70;;
12556;SDS011;6344;49.932;8.308;2023-04-15T14:28:40;1.50;;;1.40;;
12556;SDS011;6344;49.932;8.308;2023-04-15T14:31:08;3.73;;;3.43;;
12556;SDS011;6344;49.932;8.308;2023-04-15T14:33:35;7.40;;;6.70;;
12556;SDS011;6344;49.932;8.308;2023-04-15T14:36:02;3.73;;;3.43;;
12556;SDS011;6344;49.932;8.308;2023-04-15T14:38:29;2.60;;;1.97;;
12556;SDS011;6344;49.932;8.308;2023-04-15T14:40:57;2.80;;;2.60;;
12556;SDS011;6344;49.932;8.308;2023-04-15T14:43:26;4.83;;;3.43;;
12556;SDS011;6344;49.932;8.308;2023-04-15T14:45:53;3.23;;;3.03;;
12556;SDS011;6344;49.932;8.308;2023-04-15T14:48:20;4.53;;;4.13;;
12556;SDS011;6344;49.932;8.308;2023-04-15T14:50:47;3.80;;;3.50;;
12556;SDS011;6344;49.932;8.308;2023-04-15T14:53:14;2.97;;;2.73;;
12556;SDS011;6344;49.932;8.308;2023-04-15T14:55:40;2.40;;;2.20;;
12556;SDS011;6344;49.932;8.308;2023-04-15T14:58:07;3.50;;;3.30;;
12556;SDS011;6344;49.932;8.308;2023-04-15T15:00:36;4.57;;;4.13;;
12556;SDS011;6344;49.932;8.308;2023-04-15T15:03:06;3.37;;;3.17;;
12556;SDS011;6344;49.932;8.308;2023-04-15T15:05:36;3.33;;;3.03;;